Time;durP1;ratioP1;P1;durP2;ratioP2;P2;SDS_P1;SDS_P2;PMS_P1;PMS_P2;Temp;Humidity;BMP_temperature;BMP_pressure;BME280_temperature;BME280_humidity;BME280_pressure;Samples;Min_cycle;Max_cycle;Signal;HPM_P1;HPM_P2
2023/10/19 00:00:50;;;;;;;0.80;0.40;;;;;;;-143.84;73.26;45134.75;5092369;28;20561;-61
2023/10/19 00:03:18;;;;;;;0.80;0.50;;;;;;;-143.84;73.01;45136.66;5092600;28;21407;-62
2023/10/19 00:05:47;;;;;;;0.80;0.50;;;;;;;-143.84;73.11;45132.84;5092454;28;20538;-61
2023/10/19 00:08:19;;;;;;;0.90;0.60;;;;;;;-143.84;72.89;45129.03;5092451;28;20524;-61
2023/10/19 00:11:01;;;;;;;0.90;0.70;;;;;;;-143.84;72.98;45138.56;5092166;28;20448;-62
2023/10/19 00:13:29;;;;;;;0.80;0.60;;;;;;;-143.84;72.93;45148.09;5091957;28;20834;-61
2023/10/19 00:15:57;;;;;;;0.80;0.50;;;;;;;-143.84;72.93;45138.56;5092155;28;20994;-61
2023/10/19 00:18:27;;;;;;;0.80;0.50;;;;;;;-143.84;73.10;45115.72;5091940;28;20444;-61
2023/10/19 00:20:59;;;;;;;0.80;0.50;;;;;;;-143.84;73.38;45136.66;5091945;28;21078;-62
2023/10/19 00:23:31;;;;;;;0.80;0.47;;;;;;;-143.84;73.67;45138.56;5091921;28;20983;-61
2023/10/19 00:25:58;;;;;;;0.80;0.40;;;;;;;-143.84;73.70;45144.28;5091941;28;20447;-61
2023/10/19 00:28:26;;;;;;;0.80;0.40;;;;;;;-143.84;74.33;45130.94;5091746;28;20464;-61
2023/10/19 00:30:59;;;;;;;0.80;0.50;;;;;;;-143.84;74.45;45132.84;5092038;28;20447;-61
2023/10/19 00:33:30;;;;;;;0.80;0.40;;;;;;;-143.84;74.44;45144.28;5091915;28;20446;-61
2023/10/19 00:36:06;;;;;;;0.90;0.60;;;;;;;-143.84;74.75;45136.66;5091549;28;20496;-61
2023/10/19 00:38:47;;;;;;;0.80;0.50;;;;;;;-143.84;74.70;45127.13;5091731;28;20444;-62
2023/10/19 00:41:20;;;;;;;2.00;0.97;;;;;;;-143.84;74.89;45130.94;5091813;28;20451;-61
2023/10/19 00:43:49;;;;;;;0.80;0.50;;;;;;;-143.84;74.93;45146.19;5091299;28;20514;-61
2023/10/19 00:46:21;;;;;;;0.80;0.47;;;;;;;-143.84;75.20;45153.81;5091533;28;20441;-61
2023/10/19 00:48:53;;;;;;;0.80;0.53;;;;;;;-143.84;75.09;45148.09;5091474;28;20445;-61
2023/10/19 00:51:40;;;;;;;0.90;0.57;;;;;;;-143.84;75.11;45127.13;5091515;28;20535;-62
2023/10/19 00:54:13;;;;;;;0.80;0.50;;;;;;;-143.84;74.84;45148.09;5091464;28;20447;-62
2023/10/19 00:56:48;;;;;;;0.80;0.50;;;;;;;-143.84;74.50;45134.75;5091419;28;20441;-61
2023/10/19 00:59:22;;;;;;;1.30;0.60;;;;;;;-143.84;74.67;45134.75;5091632;28;20434;-61
2023/10/19 01:01:53;;;;;;;0.80;0.40;;;;;;;-143.84;74.70;45136.66;5091237;28;20545;-61
2023/10/19 01:04:25;;;;;;;0.80;0.50;;;;;;;-143.84;74.66;45150.00;5091307;28;20479;-61
2023/10/19 01:07:05;;;;;;;0.80;0.50;;;;;;;-143.84;74.38;45140.47;5091174;28;20450;-62
2023/10/19 01:09:34;;;;;;;0.80;0.50;;;;;;;-143.84;74.66;45151.91;5090969;28;20985;-62
2023/10/19 01:12:05;;;;;;;0.80;0.50;;;;;;;-143.84;74.58;45151.91;5091198;28;20956;-61
2023/10/19 01:14:34;;;;;;;0.80;0.40;;;;;;;-143.84;74.32;45136.66;5090978;28;20932;-61
2023/10/19 01:17:02;;;;;;;1.37;0.90;;;;;;;-143.84;74.01;45132.84;5090907;28;20441;-61
2023/10/19 01:19:31;;;;;;;0.80;0.60;;;;;;;-143.84;73.73;45108.09;5090872;28;20483;-61
2023/10/19 01:22:02;;;;;;;1.53;0.50;;;;;;;-143.84;73.62;45151.91;5089845;28;20494;-61
2023/10/19 01:24:40;;;;;;;0.80;0.50;;;;;;;-143.84;73.87;45134.75;5090922;28;21033;-62
2023/10/19 01:27:08;;;;;;;0.80;0.43;;;;;;;-143.84;73.79;45138.56;5090647;28;20950;-62
2023/10/19 01:29:37;;;;;;;0.80;0.50;;;;;;;-143.84;72.94;45127.13;5090874;28;20520;-61
2023/10/19 01:32:08;;;;;;;0.90;0.60;;;;;;;-143.84;72.68;45144.28;5090517;28;20966;-61
2023/10/19 01:34:35;;;;;;;0.80;0.40;;;;;;;-143.84;72.58;45119.53;5090685;28;20439;-62
2023/10/19 01:37:03;;;;;;;0.80;0.40;;;;;;;-143.84;72.44;45130.94;5090619;28;20446;-61
2023/10/19 01:39:35;;;;;;;0.80;0.40;;;;;;;-143.84;72.39;45117.63;5090815;28;20538;-63
2023/10/19 01:42:01;;;;;;;0.80;0.50;;;;;;;-143.84;72.02;45132.84;5090260;28;20533;-62
2023/10/19 01:44:28;;;;;;;1.37;0.60;;;;;;;-143.84;72.28;45136.66;5090287;28;20565;-62
2023/10/19 01:46:55;;;;;;;0.80;0.50;;;;;;;-143.84;72.21;45148.09;5090478;28;20444;-63
2023/10/19 01:49:27;;;;;;;0.80;0.53;;;;;;;-143.84;72.08;45132.84;5090267;28;20455;-63
2023/10/19 01:51:54;;;;;;;0.80;0.40;;;;;;;-143.84;72.31;45108.09;5090556;28;20450;-62
2023/10/19 01:54:24;;;;;;;0.80;0.40;;;;;;;-143.84;72.54;45115.72;5090466;28;20821;-62
2023/10/19 01:56:56;;;;;;;1.23;0.80;;;;;;;-143.84;72.67;45153.81;5090643;28;20441;-62
2023/10/19 01:59:27;;;;;;;0.90;0.60;;;;;;;-143.84;72.99;45136.66;5090183;28;20445;-62
2023/10/19 02:01:54;;;;;;;0.80;0.50;;;;;;;-143.84;73.08;45144.28;5090696;28;20527;-62
2023/10/19 02:04:22;;;;;;;0.90;0.70;;;;;;;-143.84;73.13;45121.44;5090334;28;20570;-62
2023/10/19 02:06:51;;;;;;;1.00;0.60;;;;;;;-143.84;72.91;45130.94;5090632;28;20441;-62
2023/10/19 02:09:21;;;;;;;0.90;0.60;;;;;;;-143.84;73.03;45151.91;5090278;28;20950;-62
2023/10/19 02:11:49;;;;;;;0.80;0.50;;;;;;;-143.84;72.62;45129.03;5089527;28;20454;-63
2023/10/19 02:14:19;;;;;;;1.20;0.70;;;;;;;-143.84;72.84;45113.81;5089784;28;20451;-63
2023/10/19 02:16:47;;;;;;;5.63;0.67;;;;;;;-143.84;72.52;45144.28;5089686;28;20443;-63
2023/10/19 02:19:14;;;;;;;0.80;0.50;;;;;;;-143.84;72.47;45157.59;5089560;28;20549;-63
2023/10/19 02:21:41;;;;;;;0.80;0.60;;;;;;;-143.84;72.51;45138.56;5089334;28;20485;-63
2023/10/19 02:24:09;;;;;;;0.90;0.50;;;;;;;-143.84;72.50;45144.28;5089698;28;20887;-62
2023/10/19 02:26:37;;;;;;;0.80;0.50;;;;;;;-143.84;72.50;45132.84;5089644;28;20504;-58
2023/10/19 02:29:07;;;;;;;0.80;0.50;;;;;;;-143.84;72.39;45134.75;5089843;28;20443;-58
2023/10/19 02:31:37;;;;;;;0.80;0.50;;;;;;;-143.84;72.58;45108.09;5090006;28;20475;-58
2023/10/19 02:34:05;;;;;;;0.80;0.40;;;;;;;-143.84;72.28;45146.19;5090617;28;20445;-58
2023/10/19 02:36:32;;;;;;;0.80;0.57;;;;;;;-143.84;72.17;45142.38;5093988;28;20457;-58
2023/10/19 02:38:59;;;;;;;0.80;0.40;;;;;;;-143.84;72.22;45132.84;5093880;28;20451;-58
2023/10/19 02:41:26;;;;;;;0.80;0.40;;;;;;;-143.84;72.33;45119.53;5074091;28;20439;-58
2023/10/19 02:44:05;;;;;;;0.80;0.50;;;;;;;-143.84;72.36;45148.09;5073759;28;20483;-58
2023/10/19 02:46:32;;;;;;;0.80;0.50;;;;;;;-143.84;72.44;45132.84;5073921;28;20879;-58
2023/10/19 02:49:03;;;;;;;0.80;0.40;;;;;;;-143.84;72.89;45129.03;5073966;28;20520;-58
2023/10/19 02:51:30;;;;;;;0.80;0.40;;;;;;;-143.84;72.71;45125.22;5073571;28;20436;-58
2023/10/19 02:54:00;;;;;;;1.90;0.80;;;;;;;-143.84;72.95;45150.00;5073386;28;20451;-58
2023/10/19 02:56:29;;;;;;;0.80;0.50;;;;;;;-143.84;72.76;45144.28;5073546;28;20448;-58
2023/10/19 02:59:02;;;;;;;0.80;0.50;;;;;;;-143.84;72.53;45117.63;5073537;28;20830;-58
2023/10/19 03:01:31;;;;;;;0.80;0.50;;;;;;;-143.84;72.47;45119.53;5073479;28;20471;-58
2023/10/19 03:03:59;;;;;;;0.80;0.50;;;;;;;-143.84;72.48;45146.19;5073795;28;20849;-58
2023/10/19 03:06:31;;;;;;;0.80;0.50;;;;;;;-143.84;72.40;45119.53;5073399;28;20987;-58
2023/10/19 03:09:01;;;;;;;0.90;0.70;;;;;;;-143.84;72.35;45134.75;5073110;28;20562;-58
2023/10/19 03:11:27;;;;;;;0.90;0.57;;;;;;;-143.84;72.49;45134.75;5073503;28;20460;-58
2023/10/19 03:13:54;;;;;;;0.80;0.50;;;;;;;-143.84;72.56;45121.44;5071677;28;21003;-58
2023/10/19 03:16:23;;;;;;;0.80;0.50;;;;;;;-143.84;72.29;45146.19;5073208;28;20434;-57
2023/10/19 03:18:50;;;;;;;0.80;0.53;;;;;;;-143.84;72.37;45111.91;5073292;28;20889;-58
2023/10/19 03:21:18;;;;;;;0.80;0.40;;;;;;;-143.84;72.35;45132.84;5073225;28;20760;-58
2023/10/19 03:23:47;;;;;;;0.80;0.40;;;;;;;-143.84;72.23;45142.38;5072778;28;20504;-62
2023/10/19 03:26:30;;;;;;;0.80;0.50;;;;;;;-143.84;72.18;45123.34;5072373;28;20451;-62
2023/10/19 03:29:02;;;;;;;0.80;0.40;;;;;;;-143.84;72.13;45136.66;5089724;28;20524;-62
2023/10/19 03:31:29;;;;;;;0.80;0.53;;;;;;;-143.84;71.98;45140.47;5093185;28;20435;-63
2023/10/19 03:33:59;;;;;;;0.80;0.40;;;;;;;-143.84;71.99;45104.28;5093147;28;20441;-62
2023/10/19 03:36:27;;;;;;;0.80;0.47;;;;;;;-143.84;72.05;45132.84;5093564;28;20436;-62
2023/10/19 03:38:56;;;;;;;1.10;0.60;;;;;;;-143.84;72.02;45146.19;5093084;28;20805;-62
2023/10/19 03:41:26;;;;;;;0.80;0.40;;;;;;;-143.84;72.03;45129.03;5092862;28;20433;-62
2023/10/19 03:43:54;;;;;;;1.17;0.70;;;;;;;-143.84;71.90;45130.94;5093180;28;20487;-62
2023/10/19 03:46:28;;;;;;;1.00;0.60;;;;;;;-143.84;71.91;45100.47;5092458;28;20427;-62
2023/10/19 03:48:58;;;;;;;0.80;0.40;;;;;;;-143.84;71.82;45140.47;5092794;28;20530;-63
2023/10/19 03:51:26;;;;;;;0.80;0.40;;;;;;;-143.84;71.70;45121.44;5092910;28;20519;-62
2023/10/19 03:54:01;;;;;;;0.80;0.47;;;;;;;-143.84;71.40;45138.56;5092858;28;20439;-62
2023/10/19 03:56:32;;;;;;;0.80;0.57;;;;;;;-143.84;71.41;45132.84;5092053;28;20445;-62
2023/10/19 03:59:00;;;;;;;0.80;0.40;;;;;;;-143.84;71.54;45132.84;5092063;28;21007;-62
2023/10/19 04:01:28;;;;;;;0.80;0.60;;;;;;;-143.84;72.02;45130.94;5092611;28;20446;-62
2023/10/19 04:03:55;;;;;;;0.80;0.40;;;;;;;-143.84;72.49;45161.41;5092589;28;20566;-62
2023/10/19 04:06:22;;;;;;;0.80;0.50;;;;;;;-143.84;72.72;45132.84;5092388;28;21076;-63
2023/10/19 04:08:50;;;;;;;0.80;0.50;;;;;;;-143.84;72.62;45113.81;5092288;28;20498;-62
2023/10/19 04:11:32;;;;;;;1.67;0.80;;;;;;;-143.84;72.92;45140.47;5092732;28;20482;-62
2023/10/19 04:14:03;;;;;;;1.17;0.60;;;;;;;-143.84;73.36;45125.22;5092309;28;20497;-62
2023/10/19 04:16:31;;;;;;;0.80;0.50;;;;;;;-143.84;73.50;45142.38;5092379;28;20448;-62
2023/10/19 04:18:59;;;;;;;0.80;0.47;;;;;;;-143.84;73.51;45148.09;5092091;28;20479;-62
2023/10/19 04:21:26;;;;;;;0.80;0.60;;;;;;;-143.84;73.98;45151.91;5092048;28;20493;-62
2023/10/19 04:23:53;;;;;;;0.83;0.63;;;;;;;-143.84;74.06;45148.09;5091923;28;20472;-62
2023/10/19 04:26:22;;;;;;;0.90;0.60;;;;;;;-143.84;74.27;45123.34;5091982;28;20497;-62
2023/10/19 04:28:51;;;;;;;0.80;0.50;;;;;;;-143.84;74.63;45121.44;5091886;28;20454;-62
2023/10/19 04:31:19;;;;;;;0.80;0.50;;;;;;;-143.84;74.70;45119.53;5091870;28;20658;-62
2023/10/19 04:33:50;;;;;;;0.80;0.40;;;;;;;-143.84;75.05;45142.38;5091899;28;20436;-62
2023/10/19 04:36:21;;;;;;;0.80;0.50;;;;;;;-143.84;74.87;45140.47;5091904;28;20468;-62
2023/10/19 04:38:48;;;;;;;0.80;0.50;;;;;;;-143.84;75.14;45127.13;5091765;28;20521;-62
2023/10/19 04:41:15;;;;;;;0.80;0.40;;;;;;;-143.84;74.90;45132.84;5091649;28;20444;-63
2023/10/19 04:43:49;;;;;;;0.80;0.50;;;;;;;-143.84;74.87;45142.38;5091659;28;20438;-62
2023/10/19 04:46:18;;;;;;;0.80;0.40;;;;;;;-143.84;75.12;45119.53;5091869;28;20497;-62
2023/10/19 04:48:46;;;;;;;0.80;0.40;;;;;;;-143.84;75.00;45151.91;5091575;28;20444;-62
2023/10/19 04:51:13;;;;;;;0.80;0.40;;;;;;;-143.84;75.24;45142.38;5091141;28;20469;-62
2023/10/19 04:53:42;;;;;;;0.80;0.50;;;;;;;-143.84;75.32;45130.94;5091429;28;20501;-62
2023/10/19 04:56:09;;;;;;;1.00;0.70;;;;;;;-143.84;75.07;45151.91;5091069;28;20473;-62
2023/10/19 04:58:37;;;;;;;1.37;0.77;;;;;;;-143.84;75.44;45130.94;5090783;28;20430;-63
2023/10/19 05:01:06;;;;;;;0.80;0.40;;;;;;;-143.84;75.21;45123.34;5091297;28;20461;-62
2023/10/19 05:03:34;;;;;;;0.90;0.57;;;;;;;-143.84;75.37;45127.13;5091215;28;20522;-62
2023/10/19 05:06:02;;;;;;;0.80;0.40;;;;;;;-143.84;75.31;45125.22;5091268;28;20540;-62
2023/10/19 05:08:29;;;;;;;0.80;0.40;;;;;;;-143.84;75.66;45123.34;5090477;28;21147;-62
2023/10/19 05:10:59;;;;;;;0.80;0.50;;;;;;;-143.84;75.72;45125.22;5091107;28;20790;-62
2023/10/19 05:13:26;;;;;;;0.80;0.50;;;;;;;-143.84;75.99;45138.56;5091024;28;20453;-62
2023/10/19 05:15:54;;;;;;;0.80;0.50;;;;;;;-143.84;76.01;45136.66;5090914;28;20430;-62
2023/10/19 05:18:23;;;;;;;0.80;0.43;;;;;;;-143.84;76.33;45102.38;5090919;28;20458;-62
2023/10/19 05:20:55;;;;;;;0.80;0.40;;;;;;;-143.84;76.43;45125.22;5090569;28;20525;-62
2023/10/19 05:23:23;;;;;;;0.90;0.50;;;;;;;-143.84;76.57;45144.28;5090638;28;20933;-62
2023/10/19 05:25:52;;;;;;;0.90;0.60;;;;;;;-143.84;76.51;45146.19;5090749;28;20488;-62
2023/10/19 05:28:21;;;;;;;0.80;0.40;;;;;;;-143.84;76.49;45121.44;5090694;28;20940;-62
2023/10/19 05:30:49;;;;;;;0.80;0.50;;;;;;;-143.84;76.32;45132.84;5090736;28;20918;-62
2023/10/19 05:33:20;;;;;;;1.17;0.77;;;;;;;-143.84;76.29;45106.19;5090574;28;20523;-62
2023/10/19 05:35:49;;;;;;;0.90;0.70;;;;;;;-143.84;76.18;45096.66;5087434;28;20462;-62
2023/10/19 05:38:16;;;;;;;0.80;0.40;;;;;;;-143.84;76.12;45117.63;5088732;28;20926;-62
2023/10/19 05:40:45;;;;;;;0.80;0.40;;;;;;;-143.84;74.92;45111.91;5089934;28;20435;-62
2023/10/19 05:43:12;;;;;;;0.80;0.50;;;;;;;-143.84;74.72;45106.19;5090466;28;20443;-62
2023/10/19 05:45:40;;;;;;;0.80;0.40;;;;;;;-143.84;74.43;45150.00;5090548;28;20501;-62
2023/10/19 05:48:08;;;;;;;0.80;0.50;;;;;;;-143.84;74.11;45127.13;5090257;28;20777;-62
2023/10/19 05:50:36;;;;;;;0.80;0.40;;;;;;;-143.84;73.89;45106.19;5090397;28;20488;-62
2023/10/19 05:53:05;;;;;;;0.90;0.60;;;;;;;-143.84;73.77;45144.28;5090799;28;20444;-63
2023/10/19 05:55:34;;;;;;;0.80;0.50;;;;;;;-143.84;73.68;45117.63;5090438;28;20451;-62
2023/10/19 05:58:01;;;;;;;1.00;0.53;;;;;;;-143.84;72.93;45125.22;5090375;28;20448;-62
2023/10/19 06:00:28;;;;;;;0.80;0.40;;;;;;;-143.84;72.16;45106.19;5089912;28;20441;-62
2023/10/19 06:02:55;;;;;;;0.90;0.53;;;;;;;-143.84;71.39;45098.56;5089512;28;20440;-62
2023/10/19 06:05:23;;;;;;;0.80;0.40;;;;;;;-143.84;70.43;45092.88;5089775;28;20469;-62
2023/10/19 06:07:51;;;;;;;0.90;0.50;;;;;;;-143.84;69.55;45098.56;5089568;28;20499;-62
2023/10/19 06:10:22;;;;;;;0.80;0.40;;;;;;;-143.84;68.39;45106.19;5090104;28;20447;-62
2023/10/19 06:12:50;;;;;;;0.90;0.50;;;;;;;-143.84;67.78;45110.00;5089663;28;20454;-62
2023/10/19 06:15:20;;;;;;;1.00;0.40;;;;;;;-143.84;67.04;45083.34;5089676;28;20446;-62
2023/10/19 06:17:49;;;;;;;1.67;0.70;;;;;;;-143.84;65.76;45094.78;5089304;28;20439;-62
2023/10/19 06:20:26;;;;;;;0.90;0.80;;;;;;;-143.84;66.04;45098.56;5089289;28;20530;-62
2023/10/19 06:22:55;;;;;;;0.80;0.50;;;;;;;-143.84;65.76;45087.16;5086939;28;20850;-62
2023/10/19 06:25:25;;;;;;;0.80;0.40;;;;;;;-143.84;63.02;45085.25;5089737;28;20479;-62
2023/10/19 06:27:56;;;;;;;0.80;0.40;;;;;;;-143.84;63.27;45100.47;5089435;28;20470;-62
2023/10/19 06:30:25;;;;;;;0.90;0.60;;;;;;;-143.84;63.68;45068.13;5089731;28;20448;-62
2023/10/19 06:32:56;;;;;;;0.90;0.63;;;;;;;-143.84;63.37;45100.47;5089553;28;20444;-63
2023/10/19 06:35:24;;;;;;;1.10;0.53;;;;;;;-143.84;63.23;45104.28;5089689;28;20486;-62
2023/10/19 06:37:51;;;;;;;0.90;0.60;;;;;;;-143.84;62.68;45092.88;5090041;28;20436;-62
2023/10/19 06:40:19;;;;;;;0.80;0.40;;;;;;;-143.84;61.25;45106.19;5089824;28;20432;-62
2023/10/19 06:42:48;;;;;;;1.17;0.80;;;;;;;-143.84;61.52;45085.25;5089956;28;20440;-62
2023/10/19 06:45:16;;;;;;;0.80;0.40;;;;;;;-143.84;61.97;45073.81;5089817;28;20483;-62
2023/10/19 06:47:44;;;;;;;0.90;0.60;;;;;;;-143.84;59.84;45087.16;5089720;28;20474;-62
2023/10/19 06:50:12;;;;;;;0.97;0.60;;;;;;;-143.84;61.38;45098.56;5090040;28;20440;-62
2023/10/19 06:52:40;;;;;;;1.07;0.70;;;;;;;-143.84;62.28;45090.97;5089592;28;20464;-62
2023/10/19 06:55:13;;;;;;;0.80;0.43;;;;;;;-143.84;62.05;45056.69;5089341;28;20493;-62
2023/10/19 06:57:43;;;;;;;0.80;0.50;;;;;;;-143.84;63.58;45083.34;5089900;28;20570;-62
2023/10/19 07:00:15;;;;;;;0.90;0.57;;;;;;;-143.84;62.82;45077.63;5087147;28;20449;-62
2023/10/19 07:02:43;;;;;;;1.10;0.50;;;;;;;-143.84;62.61;45110.00;5089671;28;20444;-62
2023/10/19 07:05:11;;;;;;;0.90;0.50;;;;;;;-143.84;63.81;45075.72;5089717;28;20810;-62
2023/10/19 07:07:41;;;;;;;0.80;0.40;;;;;;;-143.84;61.98;45073.81;5089623;28;20523;-62
2023/10/19 07:10:09;;;;;;;0.80;0.40;;;;;;;-143.84;59.19;45064.31;5089647;28;20444;-62
2023/10/19 07:12:37;;;;;;;0.80;0.40;;;;;;;-143.84;58.89;45100.47;5089812;28;20953;-62
2023/10/19 07:15:07;;;;;;;0.80;0.40;;;;;;;-143.84;58.51;45052.88;5089351;28;20444;-62
2023/10/19 07:17:37;;;;;;;0.80;0.37;;;;;;;-143.84;57.89;45068.13;5089744;28;20448;-62
2023/10/19 07:20:06;;;;;;;0.80;0.50;;;;;;;-143.84;59.14;45060.50;5090677;28;21138;-62
2023/10/19 07:22:33;;;;;;;0.90;0.60;;;;;;;-143.84;55.95;45094.78;5075576;28;20571;-62
2023/10/19 07:25:02;;;;;;;1.37;0.50;;;;;;;-143.84;55.06;45043.34;5092198;28;20476;-62
2023/10/19 07:27:29;;;;;;;0.80;0.40;;;;;;;-143.84;55.57;45073.81;5093408;28;20447;-62
2023/10/19 07:29:56;;;;;;;0.90;0.60;;;;;;;-143.84;56.45;45087.16;5093064;28;20435;-62
2023/10/19 07:32:23;;;;;;;0.80;0.40;;;;;;;-143.84;55.34;45081.44;5093277;28;20438;-62
2023/10/19 07:34:52;;;;;;;1.30;0.70;;;;;;;-143.84;53.88;45054.78;5093184;28;20911;-62
2023/10/19 07:37:20;;;;;;;0.87;0.60;;;;;;;-143.84;57.73;45047.16;5093392;28;21006;-62
2023/10/19 07:39:48;;;;;;;0.80;0.40;;;;;;;-143.84;53.55;45075.72;5092911;28;20443;-62
2023/10/19 07:42:15;;;;;;;0.90;0.50;;;;;;;-143.84;53.90;45070.00;5093000;28;20432;-63
2023/10/19 07:44:43;;;;;;;0.80;0.40;;;;;;;-143.84;53.15;45050.97;5092580;28;20443;-63
2023/10/19 07:47:12;;;;;;;0.80;0.40;;;;;;;-143.84;53.33;45054.78;5092821;28;20440;-63
2023/10/19 07:49:39;;;;;;;1.13;0.77;;;;;;;-143.84;54.56;45054.78;5092899;28;20445;-63
2023/10/19 07:52:10;;;;;;;0.90;0.50;;;;;;;-143.84;53.40;45043.34;5092663;28;20451;-63
2023/10/19 07:54:38;;;;;;;1.40;0.60;;;;;;;-143.84;52.04;45060.50;5092834;28;20974;-63
2023/10/19 07:57:06;;;;;;;0.90;0.43;;;;;;;-143.84;51.20;45049.06;5092480;28;20815;-63
2023/10/19 07:59:33;;;;;;;0.80;0.40;;;;;;;-143.84;53.06;45062.41;5092515;28;20463;-63
2023/10/19 08:02:04;;;;;;;0.80;0.40;;;;;;;-143.84;52.74;45047.16;5092236;28;20474;-63
2023/10/19 08:04:31;;;;;;;0.80;0.40;;;;;;;-143.84;51.70;45083.34;5093026;28;20436;-63
2023/10/19 08:06:58;;;;;;;0.80;0.40;;;;;;;-143.84;51.86;45062.41;5092799;28;21356;-63
2023/10/19 08:09:31;;;;;;;0.80;0.40;;;;;;;-143.84;51.93;45071.91;5092651;28;21361;-62
2023/10/19 08:11:59;;;;;;;0.80;0.50;;;;;;;-143.84;53.01;45049.06;5092125;28;20496;-63
2023/10/19 08:14:26;;;;;;;1.83;0.80;;;;;;;-143.84;53.30;45056.69;5092022;28;20476;-62
2023/10/19 08:16:54;;;;;;;0.80;0.40;;;;;;;-143.84;53.22;45047.16;5092263;28;20782;-62
2023/10/19 08:19:21;;;;;;;1.00;0.53;;;;;;;-143.84;53.77;45070.00;5092053;28;20432;-63
2023/10/19 08:21:49;;;;;;;0.83;0.47;;;;;;;-143.84;53.72;45070.00;5092044;28;20569;-62
2023/10/19 08:24:17;;;;;;;0.90;0.80;;;;;;;-143.84;53.39;45054.78;5091884;28;21007;-62
2023/10/19 08:26:46;;;;;;;0.80;0.50;;;;;;;-143.84;51.87;45035.75;5091752;28;20503;-63
2023/10/19 08:29:13;;;;;;;0.80;0.50;;;;;;;-143.84;51.22;45033.84;5091326;28;20975;-63
2023/10/19 08:31:41;;;;;;;0.80;0.40;;;;;;;-143.84;54.72;45058.59;5091637;28;20440;-63
2023/10/19 08:34:11;;;;;;;0.80;0.50;;;;;;;-143.84;51.82;45047.16;5091740;28;20439;-63
2023/10/19 08:36:38;;;;;;;1.23;0.50;;;;;;;-143.84;52.23;45026.22;5091673;28;20541;-63
2023/10/19 08:39:07;;;;;;;0.80;0.40;;;;;;;-143.84;51.52;45047.16;5091657;28;20424;-62
2023/10/19 08:41:37;;;;;;;0.80;0.40;;;;;;;-143.84;51.58;45052.88;5091176;28;20440;-62
2023/10/19 08:44:10;;;;;;;0.93;0.70;;;;;;;-143.84;51.87;45060.50;5091522;28;20533;-62
2023/10/19 08:46:39;;;;;;;0.80;0.50;;;;;;;-143.84;51.33;45045.25;5093879;28;20503;-62
2023/10/19 08:49:09;;;;;;;1.17;0.60;;;;;;;-143.84;50.71;45066.22;5091206;28;20512;-62
2023/10/19 08:51:37;;;;;;;0.80;0.40;;;;;;;-143.84;50.11;45064.31;5090797;28;20436;-62
2023/10/19 08:54:06;;;;;;;1.27;0.60;;;;;;;-143.84;51.87;45054.78;5090217;28;20448;-62
2023/10/19 08:56:34;;;;;;;1.07;0.80;;;;;;;-143.84;51.32;45060.50;5091420;28;20448;-62
2023/10/19 08:59:02;;;;;;;0.80;0.40;;;;;;;-143.84;50.93;45041.44;5091292;28;20832;-62
2023/10/19 09:01:31;;;;;;;0.80;0.40;;;;;;;-143.84;52.16;45064.31;5091235;28;20443;-62
2023/10/19 09:03:59;;;;;;;0.80;0.40;;;;;;;-143.84;52.35;45056.69;5091358;28;20524;-62
2023/10/19 09:06:28;;;;;;;0.80;0.40;;;;;;;-143.84;53.21;45016.69;5091018;28;20490;-62
2023/10/19 09:08:57;;;;;;;0.80;0.33;;;;;;;-143.84;52.59;45070.00;5091036;28;20471;-62
2023/10/19 09:11:25;;;;;;;0.80;0.40;;;;;;;-143.84;53.78;45052.88;5091225;28;20468;-62
2023/10/19 09:13:53;;;;;;;0.90;0.47;;;;;;;-143.84;55.18;45047.16;5091084;28;20428;-61
2023/10/19 09:16:21;;;;;;;0.80;0.30;;;;;;;-143.84;53.92;45041.44;5091003;28;21075;-62
2023/10/19 09:18:51;;;;;;;1.10;0.50;;;;;;;-143.84;53.88;45043.34;5091097;28;20509;-62
2023/10/19 09:21:25;;;;;;;1.00;0.77;;;;;;;-143.84;53.04;45056.69;5090640;28;20463;-62
2023/10/19 09:23:53;;;;;;;2.80;0.53;;;;;;;-143.84;53.18;45058.59;5090911;28;20497;-62
2023/10/19 09:26:21;;;;;;;0.80;0.43;;;;;;;-143.84;54.07;45037.66;5090935;28;20483;-62
2023/10/19 09:28:49;;;;;;;1.00;0.50;;;;;;;-143.84;55.17;45049.06;5090760;28;20439;-62
2023/10/19 09:31:21;;;;;;;1.17;0.53;;;;;;;-143.84;57.64;45073.81;5090643;28;20448;-61
2023/10/19 09:33:50;;;;;;;0.80;0.40;;;;;;;-143.84;57.68;45066.22;5090724;28;20447;-62
2023/10/19 09:36:18;;;;;;;0.90;0.60;;;;;;;-143.84;58.99;45056.69;5090846;28;20882;-62
2023/10/19 09:38:48;;;;;;;0.90;0.50;;;;;;;-143.84;59.80;45071.91;5090547;28;20876;-62
2023/10/19 09:41:18;;;;;;;0.80;0.40;;;;;;;-143.84;59.60;45079.53;5090408;28;20829;-62
2023/10/19 09:43:48;;;;;;;3.07;1.07;;;;;;;-143.84;58.86;45068.13;5090053;28;20432;-63
2023/10/19 09:46:23;;;;;;;0.80;0.50;;;;;;;-143.84;57.48;45035.75;5090172;28;20467;-62
2023/10/19 09:48:52;;;;;;;1.00;0.40;;;;;;;-143.84;57.48;45056.69;5090531;28;20989;-62
2023/10/19 09:51:22;;;;;;;0.90;0.50;;;;;;;-143.84;58.39;45054.78;5090256;28;20865;-62
2023/10/19 09:53:54;;;;;;;1.27;0.50;;;;;;;-143.84;60.21;45073.81;5090290;28;20439;-62
2023/10/19 09:56:28;;;;;;;0.80;0.40;;;;;;;-143.84;54.65;45058.59;5090114;28;20929;-62
2023/10/19 09:59:01;;;;;;;0.80;0.40;;;;;;;-143.84;54.81;45075.72;5090549;28;20468;-62
2023/10/19 10:01:29;;;;;;;1.07;0.67;;;;;;;-143.84;52.61;45066.22;5090186;28;20440;-62
2023/10/19 10:03:59;;;;;;;0.80;0.40;;;;;;;-143.84;51.24;45039.53;5090099;28;20436;-62
2023/10/19 10:06:30;;;;;;;0.80;0.40;;;;;;;-143.84;50.75;45075.72;5090125;28;20482;-62
2023/10/19 10:09:03;;;;;;;2.07;0.50;;;;;;;-143.84;52.79;45068.13;5090078;28;20439;-62
2023/10/19 10:11:30;;;;;;;0.80;0.30;;;;;;;-143.84;50.90;45075.72;5090148;28;20931;-62
2023/10/19 10:13:58;;;;;;;1.10;0.77;;;;;;;-143.84;54.26;45043.34;5090147;28;20440;-62
2023/10/19 10:16:27;;;;;;;0.80;0.50;;;;;;;-143.84;52.86;45031.94;5090080;28;20451;-63
2023/10/19 10:19:00;;;;;;;0.80;0.40;;;;;;;-143.84;54.08;45073.81;5090147;28;20797;-62
2023/10/19 10:21:28;;;;;;;0.80;0.40;;;;;;;-143.84;53.96;45062.41;5089793;28;20483;-62
2023/10/19 10:23:57;;;;;;;0.80;0.40;;;;;;;-143.84;55.13;45064.31;5090150;28;20432;-62
2023/10/19 10:26:25;;;;;;;0.80;0.40;;;;;;;-143.84;51.88;45075.72;5089907;28;20529;-62
2023/10/19 10:29:14;;;;;;;0.80;0.50;;;;;;;-143.84;52.74;45058.59;5089898;28;20447;-62
2023/10/19 10:31:45;;;;;;;0.90;0.50;;;;;;;-143.84;51.11;45070.00;5089939;28;20839;-62
2023/10/19 10:34:43;;;;;;;0.80;0.30;;;;;;;-143.84;50.20;45066.22;5090290;28;20831;-62
2023/10/19 10:37:13;;;;;;;0.90;0.50;;;;;;;-143.84;48.65;45060.50;5090005;28;20456;-62
2023/10/19 10:39:41;;;;;;;1.97;0.60;;;;;;;-143.84;49.88;45060.50;5089574;28;20446;-62
2023/10/19 10:42:09;;;;;;;1.13;0.70;;;;;;;-143.84;51.33;45056.69;5089958;28;20486;-62
2023/10/19 10:44:39;;;;;;;0.90;0.50;;;;;;;-143.84;51.80;45083.34;5089781;28;20443;-62
2023/10/19 10:47:10;;;;;;;0.80;0.40;;;;;;;-143.84;51.39;45041.44;5089827;28;20532;-62
2023/10/19 10:49:52;;;;;;;0.80;0.40;;;;;;;-143.84;51.33;45075.72;5090135;28;20424;-62
2023/10/19 10:52:31;;;;;;;1.10;0.50;;;;;;;-143.84;50.92;45062.41;5089685;28;20531;-62
2023/10/19 10:54:59;;;;;;;0.80;0.40;;;;;;;-143.84;50.47;45056.69;5071136;28;20453;-62
2023/10/19 10:57:33;;;;;;;0.80;0.40;;;;;;;-143.84;50.78;45081.44;5073577;28;20874;-63
2023/10/19 11:00:09;;;;;;;0.80;0.50;;;;;;;-143.84;50.67;45068.13;5073185;28;20820;-62
2023/10/19 11:02:42;;;;;;;1.23;0.50;;;;;;;-143.84;52.38;45043.34;5073437;28;20437;-62
2023/10/19 11:05:12;;;;;;;0.90;0.50;;;;;;;-143.84;55.20;45064.31;5073319;28;20808;-62
2023/10/19 11:07:40;;;;;;;0.80;0.40;;;;;;;-143.84;56.29;45073.81;5073134;28;21061;-62
2023/10/19 11:10:09;;;;;;;0.90;0.60;;;;;;;-143.84;51.97;45064.31;5073137;28;20441;-62
2023/10/19 11:12:37;;;;;;;1.07;0.43;;;;;;;-143.84;53.11;45075.72;5087419;28;20976;-62
2023/10/19 11:15:09;;;;;;;0.90;0.60;;;;;;;-143.84;52.57;45075.72;5093388;28;20440;-62
2023/10/19 11:17:43;;;;;;;1.30;0.53;;;;;;;-143.84;51.29;45079.53;5093348;28;20505;-62
2023/10/19 11:20:22;;;;;;;1.10;0.60;;;;;;;-143.84;50.11;45052.88;5093557;28;20451;-62
2023/10/19 11:22:50;;;;;;;0.80;0.50;;;;;;;-143.84;51.95;45056.69;5092976;28;20487;-62
2023/10/19 11:25:21;;;;;;;0.80;0.40;;;;;;;-143.84;52.47;45047.16;5093252;28;20846;-62
2023/10/19 11:27:49;;;;;;;1.20;0.97;;;;;;;-143.84;52.03;45090.97;5092917;28;20604;-62